Time;durP1;ratioP1;P1;durP2;ratioP2;P2;SDS_P1;SDS_P2;PMS_P1;PMS_P2;Temp;Humidity;BMP_temperature;BMP_pressure;BME280_temperature;BME280_humidity;BME280_pressure;Samples;Min_cycle;Max_cycle;Signal;HPM_P1;HPM_P2
2023/01/15 00:00:59;;;;;;;5.83;2.63;;;9.20;99.90;;;;;;5093463;28;20262;-71
2023/01/15 00:03:25;;;;;;;10.50;2.90;;;9.20;99.90;;;;;;5093418;28;20179;-70
2023/01/15 00:05:51;;;;;;;12.20;2.43;;;9.20;99.90;;;;;;5093232;28;20241;-71
2023/01/15 00:08:16;;;;;;;8.83;2.10;;;9.20;99.90;;;;;;5093310;28;20594;-70
2023/01/15 00:10:42;;;;;;;12.37;2.20;;;9.10;99.90;;;;;;5093482;28;20233;-71
2023/01/15 00:13:08;;;;;;;8.10;2.20;;;9.10;99.90;;;;;;5093314;28;20229;-71
2023/01/15 00:15:34;;;;;;;8.20;1.70;;;9.00;99.90;;;;;;5093477;28;20168;-70
2023/01/15 00:18:00;;;;;;;10.97;2.27;;;9.00;99.90;;;;;;5093067;28;20203;-70
2023/01/15 00:20:26;;;;;;;8.77;1.97;;;9.10;99.90;;;;;;5093230;28;20194;-70
2023/01/15 00:22:52;;;;;;;10.03;2.60;;;9.10;99.90;;;;;;5093263;28;20202;-69
2023/01/15 00:28:02;;;;;;;9.37;2.20;;;9.00;99.90;;;;;;5093079;28;20580;-70
2023/01/15 00:30:28;;;;;;;9.50;1.90;;;9.00;99.90;;;;;;5093277;28;20258;-70
2023/01/15 00:32:53;;;;;;;5.77;1.93;;;9.00;99.90;;;;;;5093159;28;20202;-70
2023/01/15 00:35:21;;;;;;;5.37;2.30;;;9.10;99.90;;;;;;5092782;28;20536;-70
2023/01/15 00:37:47;;;;;;;9.43;2.03;;;9.00;99.90;;;;;;5095549;28;20175;-70
2023/01/15 00:40:15;;;;;;;4.57;1.90;;;9.00;99.90;;;;;;5097357;28;20172;-71
2023/01/15 00:42:41;;;;;;;5.70;1.80;;;8.90;99.90;;;;;;5097125;28;20176;-71
2023/01/15 00:45:11;;;;;;;6.53;1.80;;;9.00;99.90;;;;;;5096891;28;20227;-70
2023/01/15 00:47:38;;;;;;;7.50;2.50;;;9.00;99.90;;;;;;5097267;28;20172;-70
2023/01/15 00:50:06;;;;;;;11.10;3.77;;;9.10;99.90;;;;;;5096722;28;20179;-71
2023/01/15 00:52:31;;;;;;;10.17;2.40;;;9.10;99.90;;;;;;5097089;28;20175;-70
2023/01/15 00:54:57;;;;;;;10.13;3.03;;;9.10;99.90;;;;;;5097128;28;20623;-71
2023/01/15 00:57:22;;;;;;;9.77;2.40;;;9.20;99.90;;;;;;5096718;28;20190;-70
2023/01/15 00:59:48;;;;;;;11.93;3.73;;;9.10;99.90;;;;;;5097000;28;20222;-70
2023/01/15 01:02:14;;;;;;;10.03;2.27;;;9.00;99.90;;;;;;5096854;28;20176;-71
2023/01/15 01:04:39;;;;;;;6.87;1.90;;;9.00;99.90;;;;;;5096401;28;20191;-72
2023/01/15 01:07:05;;;;;;;14.17;2.73;;;9.00;99.90;;;;;;5096757;28;20258;-71
2023/01/15 01:09:31;;;;;;;6.97;2.13;;;9.00;99.90;;;;;;5096854;28;20604;-71
2023/01/15 01:11:56;;;;;;;14.00;3.30;;;9.00;99.90;;;;;;5096662;28;20175;-70
2023/01/15 01:14:22;;;;;;;10.70;3.33;;;9.00;99.90;;;;;;5096632;28;20577;-70
2023/01/15 01:16:48;;;;;;;13.87;2.27;;;9.00;99.90;;;;;;5096412;28;20584;-70
2023/01/15 01:19:16;;;;;;;5.60;1.87;;;9.00;99.90;;;;;;5096244;28;20265;-69
2023/01/15 01:21:42;;;;;;;6.37;2.07;;;8.90;99.90;;;;;;5096613;28;20172;-70
2023/01/15 01:24:11;;;;;;;7.10;1.83;;;8.90;99.90;;;;;;5096422;28;20274;-71
2023/01/15 01:26:37;;;;;;;7.40;2.03;;;8.90;99.90;;;;;;5096395;28;20180;-70
2023/01/15 01:29:03;;;;;;;7.97;2.37;;;8.90;99.90;;;;;;5096407;28;20172;-70
2023/01/15 01:31:29;;;;;;;10.53;1.87;;;8.90;99.90;;;;;;5096409;28;20573;-70
2023/01/15 01:33:56;;;;;;;7.77;1.83;;;8.80;99.90;;;;;;5095905;28;20186;-69
2023/01/15 01:36:33;;;;;;;8.87;2.07;;;8.90;99.90;;;;;;5096189;28;20172;-70
2023/01/15 01:39:00;;;;;;;11.27;2.10;;;8.90;99.90;;;;;;5095893;28;20210;-72
2023/01/15 01:41:26;;;;;;;10.47;1.90;;;8.90;99.90;;;;;;5096293;28;20168;-70
2023/01/15 01:43:55;;;;;;;8.57;2.07;;;9.00;99.90;;;;;;5096156;28;20245;-70
2023/01/15 01:46:21;;;;;;;10.83;2.80;;;9.00;99.90;;;;;;5095694;28;20212;-70
2023/01/15 01:48:49;;;;;;;8.97;1.93;;;9.00;99.90;;;;;;5095424;28;20229;-70
2023/01/15 01:51:16;;;;;;;10.90;2.20;;;8.90;99.90;;;;;;5096141;28;20164;-71
2023/01/15 01:53:42;;;;;;;7.87;2.63;;;8.90;99.90;;;;;;5095864;28;20263;-70
2023/01/15 01:56:10;;;;;;;7.93;2.50;;;8.80;99.90;;;;;;5095971;28;20168;-70
2023/01/15 01:58:36;;;;;;;9.97;2.33;;;8.90;99.90;;;;;;5095694;28;20208;-70
2023/01/15 02:01:03;;;;;;;6.27;2.37;;;9.00;99.90;;;;;;5095835;28;20175;-70
2023/01/15 02:03:37;;;;;;;6.87;1.97;;;8.90;99.90;;;;;;5095432;28;20172;-69
2023/01/15 02:06:07;;;;;;;8.63;2.07;;;8.90;99.90;;;;;;5095542;28;20191;-70
2023/01/15 02:08:33;;;;;;;10.80;2.03;;;8.90;99.90;;;;;;5095681;28;20174;-69
2023/01/15 02:11:00;;;;;;;9.00;2.10;;;8.80;99.90;;;;;;5095591;28;20156;-69
2023/01/15 02:13:44;;;;;;;8.93;2.07;;;8.80;99.90;;;;;;5095460;28;20236;-70
2023/01/15 02:16:17;;;;;;;10.50;2.43;;;8.70;99.90;;;;;;5095757;28;20176;-69
2023/01/15 02:18:52;;;;;;;9.37;1.90;;;8.70;99.90;;;;;;5095214;28;20292;-70
2023/01/15 02:21:34;;;;;;;7.90;1.93;;;8.60;99.90;;;;;;5095504;28;20173;-70
2023/01/15 02:24:12;;;;;;;6.50;2.17;;;8.60;99.90;;;;;;5095355;28;20167;-69
2023/01/15 02:27:02;;;;;;;10.00;2.00;;;8.40;99.90;;;;;;5095384;28;20646;-70
2023/01/15 02:29:39;;;;;;;6.60;1.70;;;8.40;99.90;;;;;;5095396;28;20165;-70
2023/01/15 02:32:15;;;;;;;10.90;2.00;;;8.20;99.90;;;;;;5094925;28;20176;-69
2023/01/15 02:34:51;;;;;;;8.07;1.70;;;8.20;99.90;;;;;;5095110;28;20164;-70
2023/01/15 02:37:24;;;;;;;6.27;1.83;;;8.30;99.90;;;;;;5094781;28;20184;-70
2023/01/15 02:39:51;;;;;;;9.37;2.13;;;8.20;99.90;;;;;;5094962;28;20204;-69
2023/01/15 02:42:19;;;;;;;6.90;1.87;;;8.30;99.90;;;;;;5094840;28;20168;-69
2023/01/15 02:44:49;;;;;;;10.33;2.10;;;8.30;99.90;;;;;;5094493;28;20698;-70
2023/01/15 02:47:21;;;;;;;8.17;2.07;;;8.30;99.90;;;;;;5094368;28;20164;-69
2023/01/15 02:49:47;;;;;;;11.80;2.13;;;8.30;99.90;;;;;;5094887;28;20180;-70
2023/01/15 02:52:37;;;;;;;6.83;1.67;;;8.20;99.90;;;;;;5094742;28;20211;-69
2023/01/15 02:55:11;;;;;;;7.63;2.03;;;8.20;99.90;;;;;;5094684;28;20172;-69
2023/01/15 02:57:40;;;;;;;8.60;1.90;;;8.20;99.90;;;;;;5094593;28;20176;-69
2023/01/15 03:00:10;;;;;;;6.83;1.63;;;8.20;99.90;;;;;;5093572;28;20211;-69
2023/01/15 03:02:42;;;;;;;7.20;1.87;;;8.20;99.90;;;;;;5094483;28;20171;-69
2023/01/15 03:05:14;;;;;;;10.33;1.90;;;8.10;99.90;;;;;;5094577;28;20286;-70
2023/01/15 03:07:48;;;;;;;6.63;1.83;;;8.10;99.90;;;;;;5094377;28;20161;-69
2023/01/15 03:10:14;;;;;;;10.60;2.07;;;8.20;99.90;;;;;;5094501;28;20199;-70
2023/01/15 03:13:03;;;;;;;7.57;1.83;;;8.10;99.90;;;;;;5094069;28;20182;-70
2023/01/15 03:18:21;;;;;;;8.83;2.13;;;8.10;99.90;;;;;;5094154;28;20303;-70
2023/01/15 03:20:52;;;;;;;10.63;1.80;;;8.10;99.90;;;;;;5094223;28;20250;-69
2023/01/15 03:23:22;;;;;;;6.10;2.00;;;8.10;99.90;;;;;;5094021;28;20194;-70
2023/01/15 03:25:48;;;;;;;9.30;1.97;;;8.10;99.90;;;;;;5094146;28;20192;-69
2023/01/15 03:28:20;;;;;;;7.03;1.80;;;8.10;99.90;;;;;;5094277;28;20171;-69
2023/01/15 03:30:45;;;;;;;8.43;1.83;;;8.10;99.90;;;;;;5093882;28;20213;-70
2023/01/15 03:33:11;;;;;;;5.63;1.60;;;8.10;99.90;;;;;;5094022;28;20642;-69
2023/01/15 03:35:44;;;;;;;4.27;1.63;;;8.10;99.90;;;;;;5094126;28;20171;-69
2023/01/15 03:38:12;;;;;;;7.10;1.63;;;8.10;99.90;;;;;;5093602;28;20203;-70
2023/01/15 03:40:47;;;;;;;5.70;1.70;;;8.10;99.90;;;;;;5094112;28;20160;-69
2023/01/15 03:46:04;;;;;;;8.93;1.40;;;8.00;99.90;;;;;;5093519;28;20646;-70
2023/01/15 03:48:48;;;;;;;6.90;1.47;;;7.90;99.90;;;;;;5093757;28;20404;-70
2023/01/15 03:51:38;;;;;;;5.20;1.40;;;7.90;99.90;;;;;;5093950;28;20183;-70
2023/01/15 03:54:10;;;;;;;7.63;1.80;;;7.80;99.90;;;;;;5093870;28;20175;-70
2023/01/15 03:56:47;;;;;;;6.03;1.60;;;7.90;99.90;;;;;;5093553;28;20183;-69
2023/01/15 03:59:19;;;;;;;10.23;1.87;;;7.80;99.90;;;;;;5093397;28;20215;-70
2023/01/15 04:01:47;;;;;;;8.97;1.67;;;7.90;99.90;;;;;;5093695;28;20168;-70
2023/01/15 04:04:14;;;;;;;6.07;1.47;;;7.90;99.90;;;;;;5093520;28;20627;-69
2023/01/15 04:06:42;;;;;;;5.57;1.70;;;7.80;99.90;;;;;;5092097;28;20575;-69
2023/01/15 04:09:11;;;;;;;5.67;1.50;;;7.70;99.90;;;;;;5093488;28;20275;-69
2023/01/15 04:11:36;;;;;;;5.27;1.50;;;7.80;99.90;;;;;;5092604;28;20195;-69
2023/01/15 04:14:02;;;;;;;5.67;1.33;;;7.70;99.90;;;;;;5093057;28;20634;-69
2023/01/15 04:16:30;;;;;;;6.13;1.20;;;7.70;99.90;;;;;;5093472;28;20225;-70
2023/01/15 04:18:56;;;;;;;4.63;1.50;;;7.70;99.90;;;;;;5093120;28;20210;-69
2023/01/15 04:21:22;;;;;;;5.47;1.37;;;7.70;99.90;;;;;;5091893;28;20596;-70
2023/01/15 04:23:48;;;;;;;4.13;1.40;;;7.70;99.90;;;;;;5093367;28;20175;-69
2023/01/15 04:26:14;;;;;;;4.40;1.53;;;7.70;99.90;;;;;;5093308;28;20251;-69
2023/01/15 04:28:40;;;;;;;2.97;1.50;;;7.70;99.90;;;;;;5092702;28;20520;-69
2023/01/15 04:31:06;;;;;;;4.87;1.30;;;7.70;99.90;;;;;;5093068;28;20627;-70
2023/01/15 04:33:31;;;;;;;8.13;1.50;;;7.70;99.90;;;;;;5093281;28;20179;-69
2023/01/15 04:36:01;;;;;;;4.10;1.43;;;7.70;99.90;;;;;;5093049;28;20167;-70
2023/01/15 04:38:27;;;;;;;6.70;1.40;;;7.60;99.90;;;;;;5092972;28;20214;-70
2023/01/15 04:46:22;;;;;;;5.97;1.70;;;7.60;99.90;;;;;;5092538;28;20274;-69
2023/01/15 04:48:48;;;;;;;8.10;1.77;;;7.70;99.90;;;;;;5093103;28;20172;-69
2023/01/15 04:51:13;;;;;;;5.90;1.53;;;7.70;99.90;;;;;;5092568;28;20241;-69
2023/01/15 04:53:39;;;;;;;4.73;1.70;;;7.80;99.90;;;;;;5092972;28;20168;-70
2023/01/15 04:56:06;;;;;;;5.27;1.30;;;7.70;99.90;;;;;;5092614;28;20688;-68
2023/01/15 04:58:32;;;;;;;5.90;1.40;;;7.60;99.90;;;;;;5092471;28;20195;-68
2023/01/15 05:00:59;;;;;;;4.97;1.40;;;7.60;99.90;;;;;;5092914;28;20179;-69
2023/01/15 05:03:26;;;;;;;6.50;1.50;;;7.60;99.90;;;;;;5092613;28;20172;-70
2023/01/15 05:05:51;;;;;;;8.73;1.30;;;7.60;99.90;;;;;;5092571;28;20199;-70
2023/01/15 05:08:17;;;;;;;5.57;1.50;;;7.50;99.90;;;;;;5092404;28;20168;-69
2023/01/15 05:10:43;;;;;;;5.50;1.40;;;7.40;99.90;;;;;;5092427;28;20188;-70
2023/01/15 05:13:08;;;;;;;5.67;1.30;;;7.50;99.90;;;;;;5092899;28;20183;-70
2023/01/15 05:15:34;;;;;;;5.97;1.37;;;7.40;99.90;;;;;;5092405;28;20168;-70
2023/01/15 05:17:59;;;;;;;4.33;1.30;;;7.40;99.90;;;;;;5092748;28;20176;-70
2023/01/15 05:20:25;;;;;;;4.50;1.30;;;7.40;99.90;;;;;;5092702;28;20536;-71
2023/01/15 05:22:51;;;;;;;8.43;1.30;;;7.40;99.90;;;;;;5093573;28;20183;-71
2023/01/15 05:25:16;;;;;;;4.00;1.27;;;7.40;99.90;;;;;;5096135;28;20266;-70
2023/01/15 05:27:42;;;;;;;2.97;1.20;;;7.40;99.90;;;;;;5095654;28;20175;-70
2023/01/15 05:30:08;;;;;;;5.23;1.53;;;7.40;99.90;;;;;;5095948;28;20176;-71
2023/01/15 05:32:34;;;;;;;6.30;1.50;;;7.50;99.90;;;;;;5096336;28;20226;-69
2023/01/15 05:34:59;;;;;;;7.33;1.23;;;7.40;99.90;;;;;;5096334;28;20176;-70
2023/01/15 05:37:25;;;;;;;3.23;1.17;;;7.40;99.90;;;;;;5096113;28;20164;-71
2023/01/15 05:39:51;;;;;;;5.00;1.30;;;7.40;99.90;;;;;;5095757;28;20204;-70
2023/01/15 05:42:16;;;;;;;5.37;0.90;;;7.40;99.90;;;;;;5095880;28;20497;-69
2023/01/15 05:44:42;;;;;;;5.17;1.30;;;7.40;99.90;;;;;;5094880;28;20219;-70
2023/01/15 05:47:09;;;;;;;4.00;0.87;;;7.20;99.90;;;;;;5095471;28;20263;-69
2023/01/15 05:49:35;;;;;;;4.23;1.20;;;7.30;99.90;;;;;;5095408;28;20191;-70
2023/01/15 05:52:01;;;;;;;5.90;1.00;;;7.30;99.90;;;;;;5095966;28;20639;-70
2023/01/15 05:54:32;;;;;;;4.30;1.13;;;7.30;99.90;;;;;;5095489;28;20172;-69
2023/01/15 05:56:58;;;;;;;2.77;1.20;;;7.20;99.90;;;;;;5095642;28;20265;-68
2023/01/15 05:59:25;;;;;;;4.33;0.90;;;7.30;99.90;;;;;;5095464;28;20204;-71
2023/01/15 06:01:52;;;;;;;5.77;1.20;;;7.20;99.90;;;;;;5095628;28;20257;-69
2023/01/15 06:04:20;;;;;;;3.60;1.00;;;7.00;99.90;;;;;;5095630;28;20172;-70
2023/01/15 06:06:46;;;;;;;4.13;1.03;;;6.80;99.90;;;;;;5095486;28;20171;-70
2023/01/15 06:09:12;;;;;;;2.90;0.93;;;6.50;99.90;;;;;;5094968;28;20168;-70
2023/01/15 06:11:38;;;;;;;3.43;1.20;;;6.40;99.90;;;;;;5094982;28;20270;-70
2023/01/15 06:14:04;;;;;;;3.23;1.27;;;6.30;99.90;;;;;;5095030;28;20285;-70
2023/01/15 06:16:30;;;;;;;2.13;1.07;;;6.30;99.90;;;;;;5095120;28;20172;-70
2023/01/15 06:19:00;;;;;;;4.77;1.03;;;6.30;99.90;;;;;;5095143;28;20250;-69
2023/01/15 06:21:25;;;;;;;3.90;1.30;;;6.20;99.90;;;;;;5095425;28;20254;-69
2023/01/15 06:23:53;;;;;;;2.03;0.93;;;6.10;99.90;;;;;;5094656;28;20258;-70
2023/01/15 06:26:18;;;;;;;2.53;1.20;;;6.10;99.90;;;;;;5094813;28;20180;-69
2023/01/15 06:28:45;;;;;;;2.80;1.20;;;6.00;99.90;;;;;;5094799;28;20690;-70
2023/01/15 06:31:14;;;;;;;4.50;1.13;;;6.00;99.90;;;;;;5095191;28;20176;-70
2023/01/15 06:33:40;;;;;;;6.13;0.97;;;6.00;99.90;;;;;;5095074;28;20217;-70
2023/01/15 06:36:15;;;;;;;2.40;0.80;;;6.00;99.90;;;;;;5094082;28;20164;-70
2023/01/15 06:38:41;;;;;;;4.07;1.10;;;6.00;99.90;;;;;;5094211;28;20674;-70
2023/01/15 06:49:32;;;;;;;4.40;1.33;;;6.00;99.90;;;;;;5094286;28;20191;-68
2023/01/15 06:51:58;;;;;;;3.90;1.10;;;6.00;99.90;;;;;;5094512;28;20176;-70
2023/01/15 06:54:25;;;;;;;3.47;1.00;;;6.00;99.90;;;;;;5094321;28;20577;-69
2023/01/15 06:56:50;;;;;;;5.90;1.47;;;6.10;99.90;;;;;;5094069;28;20194;-69
2023/01/15 06:59:17;;;;;;;5.90;1.73;;;6.00;99.90;;;;;;5094175;28;20742;-70
2023/01/15 07:01:43;;;;;;;9.87;1.50;;;6.10;99.90;;;;;;5094331;28;20647;-69
2023/01/15 07:04:08;;;;;;;5.57;1.30;;;6.00;99.90;;;;;;5094259;28;20164;-69
2023/01/15 07:06:34;;;;;;;5.53;1.57;;;6.00;99.90;;;;;;5094205;28;20195;-69
2023/01/15 07:08:59;;;;;;;6.77;1.30;;;6.10;99.90;;;;;;5094269;28;20605;-69
2023/01/15 07:11:25;;;;;;;5.57;1.40;;;6.10;99.90;;;;;;5094129;28;20525;-69
2023/01/15 07:14:04;;;;;;;8.27;1.67;;;6.10;99.90;;;;;;5093982;28;20247;-68
2023/01/15 07:16:38;;;;;;;6.47;1.50;;;6.00;99.90;;;;;;5094026;28;20243;-69
2023/01/15 07:19:04;;;;;;;4.73;1.30;;;6.00;99.90;;;;;;5093978;28;20203;-69
2023/01/15 07:21:30;;;;;;;8.80;1.93;;;6.10;99.90;;;;;;5093812;28;20175;-69
2023/01/15 07:23:59;;;;;;;6.80;1.73;;;6.00;99.90;;;;;;5094149;28;20171;-69
2023/01/15 07:26:25;;;;;;;8.37;1.63;;;6.00;99.90;;;;;;5093771;28;20172;-69
2023/01/15 07:28:51;;;;;;;2.80;1.20;;;6.00;99.90;;;;;;5093714;28;20198;-69
2023/01/15 07:31:17;;;;;;;5.57;1.40;;;5.90;99.90;;;;;;5094195;28;20626;-69
2023/01/15 07:33:42;;;;;;;8.50;1.97;;;5.90;99.90;;;;;;5093790;28;20175;-69
2023/01/15 07:36:08;;;;;;;5.87;1.57;;;5.90;99.90;;;;;;5093364;28;20528;-69
2023/01/15 07:38:34;;;;;;;7.43;1.93;;;5.90;99.90;;;;;;5093779;28;20540;-70
2023/01/15 07:51:57;;;;;;;8.17;1.83;;;6.00;99.90;;;;;;5093514;28;20198;-70
2023/01/15 07:54:23;;;;;;;17.07;1.97;;;6.00;99.90;;;;;;5093522;28;20171;-70
2023/01/15 07:56:50;;;;;;;7.10;1.77;;;6.00;99.90;;;;;;5093166;28;20523;-70
2023/01/15 07:59:16;;;;;;;5.03;1.60;;;6.00;99.90;;;;;;5093134;28;20207;-70
2023/01/15 08:01:41;;;;;;;4.80;1.60;;;6.00;99.90;;;;;;5093513;28;20164;-70
2023/01/15 08:04:08;;;;;;;4.80;1.43;;;6.00;99.90;;;;;;5093240;28;20268;-69
2023/01/15 08:06:34;;;;;;;11.07;1.93;;;6.00;99.90;;;;;;5092772;28;20235;-70
2023/01/15 08:09:00;;;;;;;7.20;1.57;;;6.00;99.90;;;;;;5093209;28;20528;-70
2023/01/15 08:16:54;;;;;;;8.87;2.00;;;6.00;99.90;;;;;;5092978;28;20228;-70
2023/01/15 08:19:19;;;;;;;4.30;1.30;;;5.90;99.90;;;;;;5092792;28;20207;-69
2023/01/15 08:21:45;;;;;;;9.33;1.90;;;5.90;99.90;;;;;;5093304;28;20164;-70
2023/01/15 08:24:11;;;;;;;7.13;1.83;;;5.90;99.90;;;;;;5092550;28;20228;-70
2023/01/15 08:26:36;;;;;;;8.60;1.73;;;6.00;99.90;;;;;;5093202;28;20675;-70
2023/01/15 08:29:02;;;;;;;5.60;1.50;;;6.20;99.90;;;;;;5092892;28;20176;-71
2023/01/15 08:31:27;;;;;;;6.40;1.93;;;6.50;99.90;;;;;;5093157;28;20203;-71
2023/01/15 08:33:53;;;;;;;4.13;1.30;;;6.70;99.90;;;;;;5092562;28;20198;-70
2023/01/15 08:36:19;;;;;;;6.33;1.60;;;7.10;99.90;;;;;;5092631;28;20671;-71
2023/01/15 08:38:47;;;;;;;5.07;1.50;;;7.60;99.90;;;;;;5092499;28;20203;-70
2023/01/15 08:41:12;;;;;;;7.47;1.50;;;7.80;99.90;;;;;;5092780;28;20250;-70
2023/01/15 08:43:38;;;;;;;4.07;1.67;;;8.00;99.90;;;;;;5092866;28;20275;-72
2023/01/15 08:46:04;;;;;;;5.83;1.70;;;8.30;99.90;;;;;;5091927;28;20249;-72
2023/01/15 08:48:31;;;;;;;2.90;1.33;;;8.60;99.90;;;;;;5092179;28;20172;-71
2023/01/15 08:50:57;;;;;;;5.63;1.33;;;9.00;99.90;;;;;;5093105;28;20194;-72
2023/01/15 08:53:23;;;;;;;5.57;1.60;;;9.50;99.90;;;;;;5092691;28;20168;-71
2023/01/15 08:55:49;;;;;;;6.00;1.90;;;9.80;99.90;;;;;;5092762;28;20180;-73
2023/01/15 08:58:18;;;;;;;7.17;1.80;;;10.00;99.90;;;;;;5093845;28;20243;-73
2023/01/15 09:00:43;;;;;;;5.43;1.70;;;9.80;99.90;;;;;;5096286;28;20592;-72
2023/01/15 09:03:09;;;;;;;5.53;1.90;;;10.20;99.90;;;;;;5096029;28;20178;-73
2023/01/15 09:05:36;;;;;;;7.47;1.60;;;10.50;99.90;;;;;;5096303;28;20196;-72
2023/01/15 09:08:03;;;;;;;5.57;1.63;;;10.40;99.90;;;;;;5096440;28;20187;-71
2023/01/15 09:10:29;;;;;;;4.63;1.37;;;10.30;99.90;;;;;;5096168;28;20175;-71
2023/01/15 09:12:58;;;;;;;4.57;1.33;;;10.40;99.90;;;;;;5096177;28;20203;-72
2023/01/15 09:15:23;;;;;;;5.97;1.40;;;10.70;99.90;;;;;;5096183;28;20183;-72
2023/01/15 09:17:49;;;;;;;6.97;1.90;;;10.90;99.90;;;;;;5095711;28;20171;-73
2023/01/15 09:20:15;;;;;;;4.07;1.77;;;11.00;99.90;;;;;;5096201;28;20212;-73
2023/01/15 09:22:40;;;;;;;2.73;1.30;;;10.80;99.90;;;;;;5095988;28;20176;-73
2023/01/15 09:25:06;;;;;;;5.50;1.43;;;10.90;99.90;;;;;;5095750;28;20178;-71
2023/01/15 09:27:33;;;;;;;3.63;1.30;;;11.40;99.90;;;;;;5096015;28;20309;-73
2023/01/15 09:29:59;;;;;;;2.70;1.20;;;11.20;99.90;;;;;;5096450;28;20179;-71
2023/01/15 09:32:25;;;;;;;3.60;1.40;;;10.80;99.90;;;;;;5095500;28;20176;-72
2023/01/15 09:34:51;;;;;;;7.20;1.30;;;10.30;99.90;;;;;;5096088;28;20180;-71
2023/01/15 09:37:16;;;;;;;4.67;1.40;;;9.60;99.90;;;;;;5096004;28;20176;-71
2023/01/15 09:39:42;;;;;;;4.70;1.40;;;9.10;99.90;;;;;;5095390;28;20208;-71
2023/01/15 09:42:22;;;;;;;6.13;1.40;;;8.40;99.90;;;;;;5095708;28;20171;-72
2023/01/15 09:45:08;;;;;;;6.23;1.30;;;8.00;99.90;;;;;;5095250;28;20272;-72
2023/01/15 09:48:06;;;;;;;2.23;1.20;;;7.80;99.90;;;;;;5095447;28;20221;-71
2023/01/15 09:50:58;;;;;;;3.13;1.20;;;7.60;99.90;;;;;;5095379;28;20184;-71
2023/01/15 09:53:53;;;;;;;4.93;1.00;;;7.30;99.90;;;;;;5096063;28;20182;-71
2023/01/15 09:56:23;;;;;;;5.77;1.40;;;7.20;99.90;;;;;;5095050;28;20302;-70
2023/01/15 09:58:49;;;;;;;3.50;1.10;;;7.10;99.90;;;;;;5095127;28;20290;-70
2023/01/15 10:01:19;;;;;;;5.47;1.40;;;7.20;99.90;;;;;;5095234;28;20579;-71
2023/01/15 10:03:53;;;;;;;4.37;1.33;;;7.10;99.90;;;;;;5095676;28;20167;-70
2023/01/15 10:06:26;;;;;;;4.23;1.47;;;7.10;99.90;;;;;;5095080;28;20187;-73
2023/01/15 10:09:11;;;;;;;6.63;1.30;;;7.20;99.90;;;;;;5093937;28;20168;-70
2023/01/15 10:15:01;;;;;;;26.07;15.30;;;7.20;99.90;;;;;;5095489;28;20722;-71
2023/01/15 10:17:30;;;;;;;20.73;11.37;;;7.20;99.90;;;;;;5094940;28;20183;-71
2023/01/15 10:19:56;;;;;;;12.53;6.37;;;7.10;99.90;;;;;;5094495;28;20243;-70
2023/01/15 10:23:06;;;;;;;18.37;7.30;;;7.10;99.90;;;;;;5095066;28;20172;-70
2023/01/15 10:25:45;;;;;;;3.93;1.43;;;6.90;99.90;;;;;;5012997;28;20179;-70
2023/01/15 10:28:22;;;;;;;5.80;3.20;;;6.80;99.90;;;;;;5012803;28;20178;-69
2023/01/15 10:30:54;;;;;;;18.70;10.07;;;6.80;99.90;;;;;;5012101;28;20183;-70
2023/01/15 10:33:28;;;;;;;14.90;9.23;;;6.70;99.90;;;;;;5012745;28;20233;-70
2023/01/15 10:36:06;;;;;;;10.33;4.53;;;6.70;99.90;;;;;;5012823;28;20241;-70
2023/01/15 10:38:56;;;;;;;13.53;9.23;;;6.90;99.90;;;;;;5012515;28;20322;-71
2023/01/15 10:41:27;;;;;;;3.30;1.50;;;7.50;99.90;;;;;;5012469;28;20590;-71
2023/01/15 10:44:02;;;;;;;3.90;1.63;;;8.20;99.90;;;;;;5012385;28;20182;-72
2023/01/15 10:46:32;;;;;;;2.37;1.50;;;8.80;99.90;;;;;;5011699;28;20268;-72
2023/01/15 10:49:03;;;;;;;3.67;1.60;;;9.50;99.90;;;;;;5012296;28;20186;-70
2023/01/15 10:51:52;;;;;;;3.90;2.43;;;9.90;99.90;;;;;;5012288;28;20178;-71
2023/01/15 10:54:36;;;;;;;1.63;1.23;;;10.20;99.90;;;;;;5012653;28;20189;-73
2023/01/15 10:57:20;;;;;;;4.80;1.60;;;10.10;99.90;;;;;;5011649;28;20175;-71
2023/01/15 10:59:51;;;;;;;2.70;1.90;;;9.80;99.90;;;;;;5011623;28;20210;-71
2023/01/15 11:02:26;;;;;;;3.47;1.30;;;9.40;99.90;;;;;;5062242;28;20635;-72
2023/01/15 11:04:53;;;;;;;3.57;1.40;;;9.10;99.90;;;;;;5093611;28;20692;-70
2023/01/15 11:07:28;;;;;;;3.63;1.57;;;9.00;99.90;;;;;;5094226;28;20172;-71
2023/01/15 11:09:54;;;;;;;2.47;0.97;;;9.10;99.90;;;;;;5093854;28;20199;-70
2023/01/15 11:20:48;;;;;;;6.30;1.50;;;8.50;99.90;;;;;;5093230;28;20232;-72
2023/01/15 11:23:15;;;;;;;5.70;1.63;;;8.60;99.90;;;;;;5093902;28;20514;-71
2023/01/15 11:25:52;;;;;;;6.03;1.50;;;8.20;99.90;;;;;;5094107;28;20168;-71
2023/01/15 11:28:28;;;;;;;6.37;1.43;;;8.10;99.90;;;;;;5092515;28;20178;-71
2023/01/15 11:30:54;;;;;;;7.17;2.23;;;8.00;99.90;;;;;;5093236;28;20164;-72
2023/01/15 11:33:23;;;;;;;3.33;1.20;;;8.00;99.90;;;;;;5093437;28;20174;-72
2023/01/15 11:35:50;;;;;;;7.10;1.57;;;7.90;99.90;;;;;;5093857;28;20281;-71
2023/01/15 11:38:16;;;;;;;3.83;1.50;;;7.90;99.90;;;;;;5093778;28;20242;-71
2023/01/15 11:41:20;;;;;;;4.60;1.50;;;8.00;99.90;;;;;;5093021;28;20707;-72
2023/01/15 11:52:18;;;;;;;7.10;2.17;;;8.30;99.90;;;;;;5093382;28;20182;-70
2023/01/15 11:54:47;;;;;;;4.13;1.67;;;8.20;99.90;;;;;;5093523;28;20165;-70
2023/01/15 11:57:25;;;;;;;3.40;1.37;;;8.20;99.90;;;;;;5092558;28;20263;-71
2023/01/15 11:59:51;;;;;;;5.97;1.70;;;8.30;99.90;;;;;;5092791;28;20518;-69
2023/01/15 12:02:23;;;;;;;3.43;1.60;;;8.20;99.90;;;;;;5093264;28;20171;-70
2023/01/15 12:04:53;;;;;;;17.13;8.67;;;8.20;99.90;;;;;;5092758;28;20191;-69
2023/01/15 12:07:23;;;;;;;5.47;1.73;;;8.20;99.90;;;;;;5092616;28;20348;-71
2023/01/15 12:10:03;;;;;;;3.60;1.87;;;8.10;99.90;;;;;;5093115;28;20174;-70
2023/01/15 12:12:35;;;;;;;6.60;1.73;;;8.10;99.90;;;;;;5092755;28;20163;-70
2023/01/15 12:15:20;;;;;;;3.40;1.17;;;8.00;99.90;;;;;;5093321;28;20175;-70
2023/01/15 12:18:04;;;;;;;8.03;1.47;;;8.00;99.90;;;;;;5092712;28;20176;-71
2023/01/15 12:21:00;;;;;;;3.60;1.30;;;8.10;99.90;;;;;;5092881;28;20195;-70
2023/01/15 12:23:36;;;;;;;4.50;2.00;;;8.20;99.90;;;;;;5092815;28;20221;-70
2023/01/15 12:26:16;;;;;;;4.33;1.80;;;8.10;99.90;;;;;;5092568;28;20647;-70
2023/01/15 12:29:10;;;;;;;5.30;1.80;;;8.20;99.90;;;;;;5092777;28;20262;-71
2023/01/15 12:32:06;;;;;;;4.37;1.40;;;8.10;99.90;;;;;;5092586;28;20258;-70
2023/01/15 12:34:47;;;;;;;4.40;1.70;;;8.00;99.90;;;;;;5095085;28;20180;-70
2023/01/15 12:37:23;;;;;;;4.97;1.63;;;7.90;99.90;;;;;;5097008;28;20168;-70
2023/01/15 12:39:51;;;;;;;9.90;2.20;;;7.90;99.90;;;;;;5096172;28;20246;-70
2023/01/15 12:45:24;;;;;;;4.27;1.80;;;7.90;99.90;;;;;;5096729;28;20655;-70
2023/01/15 12:48:18;;;;;;;3.33;1.90;;;8.00;99.90;;;;;;5096625;28;20203;-70
2023/01/15 12:50:53;;;;;;;4.70;2.10;;;8.10;99.90;;;;;;5088675;28;20244;-70
2023/01/15 12:53:48;;;;;;;3.47;1.70;;;8.20;99.90;;;;;;5096125;28;20180;-70
2023/01/15 12:56:23;;;;;;;3.87;1.40;;;8.20;99.90;;;;;;5094205;28;20184;-70
2023/01/15 12:58:54;;;;;;;6.23;1.83;;;8.30;99.90;;;;;;5096336;28;20311;-70
2023/01/15 13:01:25;;;;;;;3.80;1.70;;;8.30;99.90;;;;;;5096488;28;20574;-70
2023/01/15 13:04:08;;;;;;;4.47;1.80;;;8.40;99.90;;;;;;5095718;28;20270;-71
2023/01/15 13:06:37;;;;;;;4.37;3.30;;;8.50;99.90;;;;;;5096160;28;20191;-70
2023/01/15 13:09:21;;;;;;;6.43;3.53;;;8.60;99.90;;;;;;5096209;28;20538;-70
2023/01/15 13:11:46;;;;;;;2.63;1.60;;;8.60;99.90;;;;;;5096220;28;20167;-71
2023/01/15 13:14:15;;;;;;;4.27;1.47;;;8.60;99.90;;;;;;5096241;28;20176;-71
2023/01/15 13:16:53;;;;;;;9.53;5.97;;;8.50;99.90;;;;;;5095895;28;20172;-70
2023/01/15 13:19:39;;;;;;;10.97;8.10;;;8.40;99.90;;;;;;5096384;28;20231;-71
2023/01/15 13:22:13;;;;;;;3.80;3.03;;;8.30;99.90;;;;;;5095574;28;20207;-71
2023/01/15 13:24:41;;;;;;;4.57;2.80;;;8.30;99.90;;;;;;5095962;28;20313;-72
2023/01/15 13:27:32;;;;;;;6.10;2.50;;;8.30;99.90;;;;;;5095933;28;20182;-70
2023/01/15 13:30:14;;;;;;;2.97;1.67;;;8.40;99.90;;;;;;5095317;28;20203;-71
2023/01/15 13:32:47;;;;;;;1.87;1.47;;;8.40;99.90;;;;;;5096294;28;20234;-70
2023/01/15 13:35:33;;;;;;;44.77;32.40;;;8.30;99.90;;;;;;5095624;28;20176;-70
2023/01/15 13:38:02;;;;;;;19.37;14.03;;;8.20;99.90;;;;;;5095896;28;20176;-71
2023/01/15 13:40:33;;;;;;;32.97;19.20;;;8.30;99.90;;;;;;5095846;28;20221;-71
2023/01/15 13:43:00;;;;;;;21.20;17.30;;;8.30;99.90;;;;;;5095826;28;20160;-70
2023/01/15 13:45:39;;;;;;;3.17;1.80;;;8.30;99.90;;;;;;5093565;28;20578;-71
2023/01/15 13:48:14;;;;;;;6.43;4.07;;;8.30;99.90;;;;;;5095423;28;20638;-71
2023/01/15 13:50:49;;;;;;;2.80;1.20;;;8.10;99.90;;;;;;5095466;28;20634;-71
2023/01/15 13:53:27;;;;;;;6.77;3.63;;;7.90;99.90;;;;;;5095173;28;20471;-71
2023/01/15 13:56:11;;;;;;;4.13;2.10;;;7.90;99.90;;;;;;5095586;28;20731;-71
2023/01/15 13:58:52;;;;;;;24.43;17.37;;;7.90;99.90;;;;;;5094672;28;20667;-71
2023/01/15 14:01:20;;;;;;;4.83;2.20;;;7.80;99.90;;;;;;5095441;28;20164;-70
2023/01/15 14:03:58;;;;;;;6.23;2.20;;;7.90;99.90;;;;;;5095313;28;20677;-70
2023/01/15 14:06:39;;;;;;;5.47;2.77;;;7.70;99.90;;;;;;5095103;28;20294;-70
2023/01/15 14:09:05;;;;;;;5.20;2.60;;;7.60;99.90;;;;;;5094874;28;20160;-71
2023/01/15 14:11:37;;;;;;;4.07;3.03;;;7.40;99.90;;;;;;5093985;28;20183;-72
2023/01/15 14:14:21;;;;;;;5.50;3.80;;;7.30;99.90;;;;;;5095108;28;20263;-72